sensor_id;sensor_type;location;lat;lon;timestamp;temperature;humidity
3136;DHT22;1578;47.658;9.922;2023-01-25T00:01:57;1.20;74.80
3136;DHT22;1578;47.658;9.922;2023-01-25T00:04:23;1.20;74.70
3136;DHT22;1578;47.658;9.922;2023-01-25T00:06:48;1.30;73.90
3136;DHT22;1578;47.658;9.922;2023-01-25T00:09:15;1.20;75.30
3136;DHT22;1578;47.658;9.922;2023-01-25T00:11:41;1.30;75.80
3136;DHT22;1578;47.658;9.922;2023-01-25T00:14:09;1.20;75.00
3136;DHT22;1578;47.658;9.922;2023-01-25T00:16:36;1.20;76.00
3136;DHT22;1578;47.658;9.922;2023-01-25T00:19:02;1.30;75.00
3136;DHT22;1578;47.658;9.922;2023-01-25T00:21:27;1.30;74.70
3136;DHT22;1578;47.658;9.922;2023-01-25T00:23:53;1.40;73.60
3136;DHT22;1578;47.658;9.922;2023-01-25T00:26:19;1.30;73.50
3136;DHT22;1578;47.658;9.922;2023-01-25T00:28:52;1.30;73.90
3136;DHT22;1578;47.658;9.922;2023-01-25T00:31:40;1.40;74.50
3136;DHT22;1578;47.658;9.922;2023-01-25T00:37:17;1.40;72.20
3136;DHT22;1578;47.658;9.922;2023-01-25T00:39:47;1.40;71.10
3136;DHT22;1578;47.658;9.922;2023-01-25T00:42:15;1.40;70.40
3136;DHT22;1578;47.658;9.922;2023-01-25T00:44:41;1.40;70.30
3136;DHT22;1578;47.658;9.922;2023-01-25T00:47:09;1.50;70.20
3136;DHT22;1578;47.658;9.922;2023-01-25T00:49:34;1.50;69.40
3136;DHT22;1578;47.658;9.922;2023-01-25T00:52:00;1.50;68.70
3136;DHT22;1578;47.658;9.922;2023-01-25T00:54:26;1.40;70.00
3136;DHT22;1578;47.658;9.922;2023-01-25T00:56:52;1.50;70.10
3136;DHT22;1578;47.658;9.922;2023-01-25T00:59:18;1.40;69.80
3136;DHT22;1578;47.658;9.922;2023-01-25T01:01:44;1.40;70.80
3136;DHT22;1578;47.658;9.922;2023-01-25T01:04:10;1.40;70.40
3136;DHT22;1578;47.658;9.922;2023-01-25T01:06:37;1.40;70.90
3136;DHT22;1578;47.658;9.922;2023-01-25T01:09:04;1.40;70.10
3136;DHT22;1578;47.658;9.922;2023-01-25T01:11:30;1.40;69.70
3136;DHT22;1578;47.658;9.922;2023-01-25T01:13:57;1.30;70.70
3136;DHT22;1578;47.658;9.922;2023-01-25T01:16:24;1.30;71.90
3136;DHT22;1578;47.658;9.922;2023-01-25T01:18:49;1.30;72.40
3136;DHT22;1578;47.658;9.922;2023-01-25T01:21:15;1.30;72.30
3136;DHT22;1578;47.658;9.922;2023-01-25T01:23:41;1.30;72.00
3136;DHT22;1578;47.658;9.922;2023-01-25T01:26:09;1.30;71.30
3136;DHT22;1578;47.658;9.922;2023-01-25T01:28:35;1.20;72.00
3136;DHT22;1578;47.658;9.922;2023-01-25T01:31:06;1.20;71.30
3136;DHT22;1578;47.658;9.922;2023-01-25T01:33:33;1.20;71.80
3136;DHT22;1578;47.658;9.922;2023-01-25T01:36:02;1.10;72.40
3136;DHT22;1578;47.658;9.922;2023-01-25T01:38:31;1.10;73.20
3136;DHT22;1578;47.658;9.922;2023-01-25T01:40:57;1.00;75.00
3136;DHT22;1578;47.658;9.922;2023-01-25T01:43:23;1.00;74.80
3136;DHT22;1578;47.658;9.922;2023-01-25T01:45:50;1.10;73.50
3136;DHT22;1578;47.658;9.922;2023-01-25T01:48:24;1.10;73.00
3136;DHT22;1578;47.658;9.922;2023-01-25T01:50:55;1.10;72.90
3136;DHT22;1578;47.658;9.922;2023-01-25T01:53:23;1.00;74.20
3136;DHT22;1578;47.658;9.922;2023-01-25T01:55:52;1.00;73.40
3136;DHT22;1578;47.658;9.922;2023-01-25T01:58:21;1.10;72.40
3136;DHT22;1578;47.658;9.922;2023-01-25T02:00:47;1.10;72.40
3136;DHT22;1578;47.658;9.922;2023-01-25T02:03:13;1.10;72.60
3136;DHT22;1578;47.658;9.922;2023-01-25T02:05:50;1.00;73.40
3136;DHT22;1578;47.658;9.922;2023-01-25T02:08:17;1.00;75.30
3136;DHT22;1578;47.658;9.922;2023-01-25T02:10:44;0.90;74.90
3136;DHT22;1578;47.658;9.922;2023-01-25T02:13:10;0.90;74.20
3136;DHT22;1578;47.658;9.922;2023-01-25T02:15:46;0.80;74.80
3136;DHT22;1578;47.658;9.922;2023-01-25T02:18:13;0.80;74.30
3136;DHT22;1578;47.658;9.922;2023-01-25T02:20:44;0.80;74.50
3136;DHT22;1578;47.658;9.922;2023-01-25T02:25:54;0.90;73.80
3136;DHT22;1578;47.658;9.922;2023-01-25T02:31:01;0.80;73.70
3136;DHT22;1578;47.658;9.922;2023-01-25T02:33:27;0.80;73.00
3136;DHT22;1578;47.658;9.922;2023-01-25T02:36:00;0.80;74.10
3136;DHT22;1578;47.658;9.922;2023-01-25T02:38:55;0.80;75.30
3136;DHT22;1578;47.658;9.922;2023-01-25T02:41:34;0.80;76.80
3136;DHT22;1578;47.658;9.922;2023-01-25T02:44:22;0.90;74.50
3136;DHT22;1578;47.658;9.922;2023-01-25T02:46:49;0.90;72.90
3136;DHT22;1578;47.658;9.922;2023-01-25T02:49:16;0.90;73.70
3136;DHT22;1578;47.658;9.922;2023-01-25T02:51:45;0.90;72.90
3136;DHT22;1578;47.658;9.922;2023-01-25T02:54:12;1.00;72.70
3136;DHT22;1578;47.658;9.922;2023-01-25T02:56:38;0.90;72.70
3136;DHT22;1578;47.658;9.922;2023-01-25T02:59:08;1.00;72.90
3136;DHT22;1578;47.658;9.922;2023-01-25T03:01:35;1.00;71.60
3136;DHT22;1578;47.658;9.922;2023-01-25T03:04:02;1.00;72.40
3136;DHT22;1578;47.658;9.922;2023-01-25T03:06:27;0.90;73.90
3136;DHT22;1578;47.658;9.922;2023-01-25T03:08:53;0.90;73.40
3136;DHT22;1578;47.658;9.922;2023-01-25T03:11:19;0.90;72.90
3136;DHT22;1578;47.658;9.922;2023-01-25T03:13:45;1.00;72.90
3136;DHT22;1578;47.658;9.922;2023-01-25T03:16:12;1.00;72.10
3136;DHT22;1578;47.658;9.922;2023-01-25T03:18:38;0.90;72.60
3136;DHT22;1578;47.658;9.922;2023-01-25T03:23:34;1.00;72.30
3136;DHT22;1578;47.658;9.922;2023-01-25T03:26:14;1.00;72.10
3136;DHT22;1578;47.658;9.922;2023-01-25T03:28:40;1.00;72.20
3136;DHT22;1578;47.658;9.922;2023-01-25T03:31:09;1.00;72.90
3136;DHT22;1578;47.658;9.922;2023-01-25T03:33:34;0.90;73.30
3136;DHT22;1578;47.658;9.922;2023-01-25T03:36:01;0.80;75.40
3136;DHT22;1578;47.658;9.922;2023-01-25T03:38:27;0.90;74.70
3136;DHT22;1578;47.658;9.922;2023-01-25T03:40:53;0.90;73.90
3136;DHT22;1578;47.658;9.922;2023-01-25T03:43:19;0.90;74.40
3136;DHT22;1578;47.658;9.922;2023-01-25T03:45:49;0.90;73.30
3136;DHT22;1578;47.658;9.922;2023-01-25T03:48:15;0.80;73.50
3136;DHT22;1578;47.658;9.922;2023-01-25T03:50:41;0.80;74.60
3136;DHT22;1578;47.658;9.922;2023-01-25T03:53:06;0.80;73.70
3136;DHT22;1578;47.658;9.922;2023-01-25T03:55:41;0.80;73.70
3136;DHT22;1578;47.658;9.922;2023-01-25T03:58:07;0.80;74.60
3136;DHT22;1578;47.658;9.922;2023-01-25T04:00:32;0.80;75.30
3136;DHT22;1578;47.658;9.922;2023-01-25T04:02:58;0.70;76.00
3136;DHT22;1578;47.658;9.922;2023-01-25T04:05:23;0.70;76.40
3136;DHT22;1578;47.658;9.922;2023-01-25T04:07:49;0.80;74.50
3136;DHT22;1578;47.658;9.922;2023-01-25T04:10:14;0.70;76.00
3136;DHT22;1578;47.658;9.922;2023-01-25T04:12:40;0.70;74.10
3136;DHT22;1578;47.658;9.922;2023-01-25T04:15:06;0.70;74.80
3136;DHT22;1578;47.658;9.922;2023-01-25T04:17:32;0.70;74.80
3136;DHT22;1578;47.658;9.922;2023-01-25T04:19:58;0.70;73.80
3136;DHT22;1578;47.658;9.922;2023-01-25T04:22:23;0.70;74.80
3136;DHT22;1578;47.658;9.922;2023-01-25T04:24:49;0.70;75.50
3136;DHT22;1578;47.658;9.922;2023-01-25T04:27:14;0.70;75.00
3136;DHT22;1578;47.658;9.922;2023-01-25T04:29:40;0.70;75.70
3136;DHT22;1578;47.658;9.922;2023-01-25T04:32:06;0.80;73.30
3136;DHT22;1578;47.658;9.922;2023-01-25T04:34:31;0.60;75.20
3136;DHT22;1578;47.658;9.922;2023-01-25T04:36:57;0.70;74.90
3136;DHT22;1578;47.658;9.922;2023-01-25T04:39:22;0.70;73.70
3136;DHT22;1578;47.658;9.922;2023-01-25T04:41:48;0.70;75.50
3136;DHT22;1578;47.658;9.922;2023-01-25T04:44:13;0.60;76.90
3136;DHT22;1578;47.658;9.922;2023-01-25T04:46:39;0.70;76.00
3136;DHT22;1578;47.658;9.922;2023-01-25T04:49:05;0.80;74.10
3136;DHT22;1578;47.658;9.922;2023-01-25T04:51:30;0.90;71.90
3136;DHT22;1578;47.658;9.922;2023-01-25T04:53:56;0.90;71.30
3136;DHT22;1578;47.658;9.922;2023-01-25T04:56:21;0.80;70.50
3136;DHT22;1578;47.658;9.922;2023-01-25T04:58:47;0.70;70.40
3136;DHT22;1578;47.658;9.922;2023-01-25T05:01:12;0.60;71.40
3136;DHT22;1578;47.658;9.922;2023-01-25T05:03:38;0.70;71.50
3136;DHT22;1578;47.658;9.922;2023-01-25T05:06:04;0.70;71.00
3136;DHT22;1578;47.658;9.922;2023-01-25T05:08:29;0.80;70.50
3136;DHT22;1578;47.658;9.922;2023-01-25T05:10:55;0.70;70.20
3136;DHT22;1578;47.658;9.922;2023-01-25T05:13:20;0.70;69.40
3136;DHT22;1578;47.658;9.922;2023-01-25T05:15:46;0.80;69.70
3136;DHT22;1578;47.658;9.922;2023-01-25T05:18:12;0.80;69.90
3136;DHT22;1578;47.658;9.922;2023-01-25T05:20:37;0.70;69.00
3136;DHT22;1578;47.658;9.922;2023-01-25T05:23:03;0.70;69.60
3136;DHT22;1578;47.658;9.922;2023-01-25T05:25:28;0.80;67.90
3136;DHT22;1578;47.658;9.922;2023-01-25T05:28:13;0.70;69.20
3136;DHT22;1578;47.658;9.922;2023-01-25T05:30:38;0.70;69.10
3136;DHT22;1578;47.658;9.922;2023-01-25T05:33:04;0.70;68.30
3136;DHT22;1578;47.658;9.922;2023-01-25T05:35:29;0.70;69.10
3136;DHT22;1578;47.658;9.922;2023-01-25T05:37:57;0.60;68.70
3136;DHT22;1578;47.658;9.922;2023-01-25T05:40:23;0.60;69.20
3136;DHT22;1578;47.658;9.922;2023-01-25T05:42:56;0.60;69.80
3136;DHT22;1578;47.658;9.922;2023-01-25T05:45:22;0.60;69.60
3136;DHT22;1578;47.658;9.922;2023-01-25T05:47:52;0.50;71.20
3136;DHT22;1578;47.658;9.922;2023-01-25T05:50:18;0.40;72.30
3136;DHT22;1578;47.658;9.922;2023-01-25T05:52:45;0.60;70.00
3136;DHT22;1578;47.658;9.922;2023-01-25T05:55:11;0.60;67.90
3136;DHT22;1578;47.658;9.922;2023-01-25T05:57:36;0.60;67.80
3136;DHT22;1578;47.658;9.922;2023-01-25T06:00:03;0.50;67.40
3136;DHT22;1578;47.658;9.922;2023-01-25T06:02:33;0.50;67.80
3136;DHT22;1578;47.658;9.922;2023-01-25T06:04:58;0.60;67.90
3136;DHT22;1578;47.658;9.922;2023-01-25T06:07:24;0.60;68.00
3136;DHT22;1578;47.658;9.922;2023-01-25T06:09:50;0.50;66.90
3136;DHT22;1578;47.658;9.922;2023-01-25T06:12:19;0.50;66.90
3136;DHT22;1578;47.658;9.922;2023-01-25T06:14:45;0.50;67.10
3136;DHT22;1578;47.658;9.922;2023-01-25T06:17:12;0.60;67.50
3136;DHT22;1578;47.658;9.922;2023-01-25T06:19:38;0.60;65.70
3136;DHT22;1578;47.658;9.922;2023-01-25T06:22:03;0.50;67.50
3136;DHT22;1578;47.658;9.922;2023-01-25T06:24:29;0.60;67.00
3136;DHT22;1578;47.658;9.922;2023-01-25T06:26:55;0.60;67.20
3136;DHT22;1578;47.658;9.922;2023-01-25T06:29:20;0.60;67.00
3136;DHT22;1578;47.658;9.922;2023-01-25T06:31:46;0.60;67.00
3136;DHT22;1578;47.658;9.922;2023-01-25T06:34:11;0.60;67.60
3136;DHT22;1578;47.658;9.922;2023-01-25T06:36:37;0.70;67.00
3136;DHT22;1578;47.658;9.922;2023-01-25T06:39:03;0.60;67.00
3136;DHT22;1578;47.658;9.922;2023-01-25T06:41:28;0.60;67.00
3136;DHT22;1578;47.658;9.922;2023-01-25T06:43:54;0.60;67.00
3136;DHT22;1578;47.658;9.922;2023-01-25T06:46:20;0.60;67.00
3136;DHT22;1578;47.658;9.922;2023-01-25T06:48:46;0.70;67.00
3136;DHT22;1578;47.658;9.922;2023-01-25T06:51:12;0.70;67.00
3136;DHT22;1578;47.658;9.922;2023-01-25T06:53:41;0.70;65.60
3136;DHT22;1578;47.658;9.922;2023-01-25T06:56:12;0.70;65.50
3136;DHT22;1578;47.658;9.922;2023-01-25T06:58:39;0.60;65.20
3136;DHT22;1578;47.658;9.922;2023-01-25T07:01:16;0.60;67.00
3136;DHT22;1578;47.658;9.922;2023-01-25T07:03:50;0.70;66.80
3136;DHT22;1578;47.658;9.922;2023-01-25T07:06:16;0.60;66.80
3136;DHT22;1578;47.658;9.922;2023-01-25T07:08:42;0.60;66.20
3136;DHT22;1578;47.658;9.922;2023-01-25T07:11:10;0.60;67.00
3136;DHT22;1578;47.658;9.922;2023-01-25T07:13:39;0.70;66.40
3136;DHT22;1578;47.658;9.922;2023-01-25T07:16:06;0.70;64.80
3136;DHT22;1578;47.658;9.922;2023-01-25T07:18:33;0.70;66.70
3136;DHT22;1578;47.658;9.922;2023-01-25T07:21:15;0.70;66.30
3136;DHT22;1578;47.658;9.922;2023-01-25T07:23:41;0.80;64.00
3136;DHT22;1578;47.658;9.922;2023-01-25T07:26:19;0.70;63.30
3136;DHT22;1578;47.658;9.922;2023-01-25T07:28:46;0.70;63.80
3136;DHT22;1578;47.658;9.922;2023-01-25T07:31:12;0.70;63.10
3136;DHT22;1578;47.658;9.922;2023-01-25T07:33:38;0.70;63.20
3136;DHT22;1578;47.658;9.922;2023-01-25T07:36:06;0.70;63.40
3136;DHT22;1578;47.658;9.922;2023-01-25T07:38:35;0.80;63.60
3136;DHT22;1578;47.658;9.922;2023-01-25T07:41:01;0.70;63.40
3136;DHT22;1578;47.658;9.922;2023-01-25T07:43:27;0.70;64.40
3136;DHT22;1578;47.658;9.922;2023-01-25T07:45:59;0.70;62.80
3136;DHT22;1578;47.658;9.922;2023-01-25T07:48:25;0.70;64.00
3136;DHT22;1578;47.658;9.922;2023-01-25T07:50:51;0.70;64.50
3136;DHT22;1578;47.658;9.922;2023-01-25T07:53:39;0.70;65.50
3136;DHT22;1578;47.658;9.922;2023-01-25T07:56:05;0.80;64.00
3136;DHT22;1578;47.658;9.922;2023-01-25T07:58:32;0.80;63.20
3136;DHT22;1578;47.658;9.922;2023-01-25T08:01:05;0.70;64.90
3136;DHT22;1578;47.658;9.922;2023-01-25T08:03:30;0.70;64.70
3136;DHT22;1578;47.658;9.922;2023-01-25T08:05:56;0.80;63.90
3136;DHT22;1578;47.658;9.922;2023-01-25T08:08:22;0.80;63.20
3136;DHT22;1578;47.658;9.922;2023-01-25T08:10:47;0.80;63.20
3136;DHT22;1578;47.658;9.922;2023-01-25T08:13:13;0.80;62.60
3136;DHT22;1578;47.658;9.922;2023-01-25T08:15:38;0.90;62.70
3136;DHT22;1578;47.658;9.922;2023-01-25T08:18:04;0.90;62.60
3136;DHT22;1578;47.658;9.922;2023-01-25T08:20:30;1.00;62.20
3136;DHT22;1578;47.658;9.922;2023-01-25T08:22:55;1.00;62.40
3136;DHT22;1578;47.658;9.922;2023-01-25T08:25:21;1.00;60.90
3136;DHT22;1578;47.658;9.922;2023-01-25T08:27:46;1.00;62.30
3136;DHT22;1578;47.658;9.922;2023-01-25T08:30:13;1.00;61.60
3136;DHT22;1578;47.658;9.922;2023-01-25T08:32:39;1.10;60.60
3136;DHT22;1578;47.658;9.922;2023-01-25T08:35:05;1.20;59.30
3136;DHT22;1578;47.658;9.922;2023-01-25T08:37:30;1.10;58.30
3136;DHT22;1578;47.658;9.922;2023-01-25T08:39:56;1.00;58.20
3136;DHT22;1578;47.658;9.922;2023-01-25T08:42:23;1.00;59.80
3136;DHT22;1578;47.658;9.922;2023-01-25T08:44:48;1.00;58.90
3136;DHT22;1578;47.658;9.922;2023-01-25T08:47:14;0.90;58.40
3136;DHT22;1578;47.658;9.922;2023-01-25T08:49:39;0.90;59.60
3136;DHT22;1578;47.658;9.922;2023-01-25T08:52:05;0.80;59.80
3136;DHT22;1578;47.658;9.922;2023-01-25T08:54:30;0.80;59.90
3136;DHT22;1578;47.658;9.922;2023-01-25T08:56:56;0.90;58.30
3136;DHT22;1578;47.658;9.922;2023-01-25T08:59:22;0.80;59.90
3136;DHT22;1578;47.658;9.922;2023-01-25T09:01:47;0.90;59.60
3136;DHT22;1578;47.658;9.922;2023-01-25T09:04:13;0.90;59.80
3136;DHT22;1578;47.658;9.922;2023-01-25T09:06:39;1.00;58.20
3136;DHT22;1578;47.658;9.922;2023-01-25T09:09:04;1.00;58.20
3136;DHT22;1578;47.658;9.922;2023-01-25T09:11:32;1.00;59.00
3136;DHT22;1578;47.658;9.922;2023-01-25T09:13:58;1.00;60.20
3136;DHT22;1578;47.658;9.922;2023-01-25T09:16:24;1.00;59.30
3136;DHT22;1578;47.658;9.922;2023-01-25T09:18:58;1.10;58.30
3136;DHT22;1578;47.658;9.922;2023-01-25T09:21:25;1.00;58.20
3136;DHT22;1578;47.658;9.922;2023-01-25T09:23:52;1.10;57.10
3136;DHT22;1578;47.658;9.922;2023-01-25T09:26:18;1.10;58.30
3136;DHT22;1578;47.658;9.922;2023-01-25T09:28:51;1.10;59.00
3136;DHT22;1578;47.658;9.922;2023-01-25T09:31:19;1.20;56.80
3136;DHT22;1578;47.658;9.922;2023-01-25T09:33:45;1.30;56.50
3136;DHT22;1578;47.658;9.922;2023-01-25T09:36:11;1.30;55.60
3136;DHT22;1578;47.658;9.922;2023-01-25T09:38:37;1.30;55.90
3136;DHT22;1578;47.658;9.922;2023-01-25T09:46:45;1.40;54.50
3136;DHT22;1578;47.658;9.922;2023-01-25T09:54:55;1.60;53.80
3136;DHT22;1578;47.658;9.922;2023-01-25T09:57:33;1.70;53.50
3136;DHT22;1578;47.658;9.922;2023-01-25T10:00:05;1.70;52.00
3136;DHT22;1578;47.658;9.922;2023-01-25T10:02:47;1.70;51.20
3136;DHT22;1578;47.658;9.922;2023-01-25T10:05:17;1.70;52.30
3136;DHT22;1578;47.658;9.922;2023-01-25T10:07:56;1.80;50.90
3136;DHT22;1578;47.658;9.922;2023-01-25T10:10:43;1.80;51.90
3136;DHT22;1578;47.658;9.922;2023-01-25T10:13:20;1.80;50.00
3136;DHT22;1578;47.658;9.922;2023-01-25T10:15:50;1.70;50.00
3136;DHT22;1578;47.658;9.922;2023-01-25T10:18:50;1.70;51.20
3136;DHT22;1578;47.658;9.922;2023-01-25T10:21:32;1.80;51.00
3136;DHT22;1578;47.658;9.922;2023-01-25T10:27:22;1.80;49.10
3136;DHT22;1578;47.658;9.922;2023-01-25T10:29:53;1.80;50.20
3136;DHT22;1578;47.658;9.922;2023-01-25T10:32:30;1.80;50.00
3136;DHT22;1578;47.658;9.922;2023-01-25T10:35:20;1.80;49.50
3136;DHT22;1578;47.658;9.922;2023-01-25T10:37:47;1.70;49.80
3136;DHT22;1578;47.658;9.922;2023-01-25T10:40:18;1.70;49.80
3136;DHT22;1578;47.658;9.922;2023-01-25T10:43:06;1.80;50.00
3136;DHT22;1578;47.658;9.922;2023-01-25T10:45:35;1.80;49.40
3136;DHT22;1578;47.658;9.922;2023-01-25T10:48:13;1.80;47.60
3136;DHT22;1578;47.658;9.922;2023-01-25T10:50:43;1.60;48.70
3136;DHT22;1578;47.658;9.922;2023-01-25T10:53:34;1.70;49.80
3136;DHT22;1578;47.658;9.922;2023-01-25T10:58:44;1.60;49.80
3136;DHT22;1578;47.658;9.922;2023-01-25T11:01:31;1.60;49.80
3136;DHT22;1578;47.658;9.922;2023-01-25T11:03:58;1.60;49.80
3136;DHT22;1578;47.658;9.922;2023-01-25T11:06:46;1.60;48.70
3136;DHT22;1578;47.658;9.922;2023-01-25T11:11:54;1.70;49.20
3136;DHT22;1578;47.658;9.922;2023-01-25T11:14:22;1.80;49.70
3136;DHT22;1578;47.658;9.922;2023-01-25T11:16:48;1.80;48.90
3136;DHT22;1578;47.658;9.922;2023-01-25T11:21:54;1.80;49.50
3136;DHT22;1578;47.658;9.922;2023-01-25T11:24:20;1.90;48.40
3136;DHT22;1578;47.658;9.922;2023-01-25T11:26:50;2.00;48.10
3136;DHT22;1578;47.658;9.922;2023-01-25T11:29:20;2.00;48.60
3136;DHT22;1578;47.658;9.922;2023-01-25T11:31:48;2.00;48.70
3136;DHT22;1578;47.658;9.922;2023-01-25T11:34:17;2.00;50.80
3136;DHT22;1578;47.658;9.922;2023-01-25T11:37:00;1.90;50.60
3136;DHT22;1578;47.658;9.922;2023-01-25T11:39:47;2.00;51.10
3136;DHT22;1578;47.658;9.922;2023-01-25T11:42:29;2.10;50.20
3136;DHT22;1578;47.658;9.922;2023-01-25T11:45:28;2.20;49.40
3136;DHT22;1578;47.658;9.922;2023-01-25T11:48:23;2.10;50.20
3136;DHT22;1578;47.658;9.922;2023-01-25T11:51:07;2.20;49.90
3136;DHT22;1578;47.658;9.922;2023-01-25T11:54:04;2.00;50.90
3136;DHT22;1578;47.658;9.922;2023-01-25T11:56:53;1.90;52.80
3136;DHT22;1578;47.658;9.922;2023-01-25T11:59:37;2.00;51.50
3136;DHT22;1578;47.658;9.922;2023-01-25T12:02:18;1.90;51.90
3136;DHT22;1578;47.658;9.922;2023-01-25T12:05:08;1.90;51.60
3136;DHT22;1578;47.658;9.922;2023-01-25T12:08:04;1.90;53.30
3136;DHT22;1578;47.658;9.922;2023-01-25T12:10:37;2.00;52.30
3136;DHT22;1578;47.658;9.922;2023-01-25T12:13:30;2.00;52.40
3136;DHT22;1578;47.658;9.922;2023-01-25T12:30:15;2.20;52.80
3136;DHT22;1578;47.658;9.922;2023-01-25T12:32:53;2.10;52.00
3136;DHT22;1578;47.658;9.922;2023-01-25T12:35:38;2.00;53.30
3136;DHT22;1578;47.658;9.922;2023-01-25T12:38:13;2.00;53.80
3136;DHT22;1578;47.658;9.922;2023-01-25T12:43:15;2.00;54.60
3136;DHT22;1578;47.658;9.922;2023-01-25T12:45:44;2.00;55.20
3136;DHT22;1578;47.658;9.922;2023-01-25T12:48:24;2.00;55.50
3136;DHT22;1578;47.658;9.922;2023-01-25T12:50:56;2.00;55.80
3136;DHT22;1578;47.658;9.922;2023-01-25T12:55:54;2.20;54.30
3136;DHT22;1578;47.658;9.922;2023-01-25T12:58:39;2.10;52.90
3136;DHT22;1578;47.658;9.922;2023-01-25T13:09:33;2.30;50.80
3136;DHT22;1578;47.658;9.922;2023-01-25T13:12:04;2.30;51.10
3136;DHT22;1578;47.658;9.922;2023-01-25T13:14:34;2.20;52.00
3136;DHT22;1578;47.658;9.922;2023-01-25T13:19:37;2.30;50.40
3136;DHT22;1578;47.658;9.922;2023-01-25T13:22:11;2.30;50.40
3136;DHT22;1578;47.658;9.922;2023-01-25T13:27:42;2.30;50.40
3136;DHT22;1578;47.658;9.922;2023-01-25T13:32:55;2.20;50.50
3136;DHT22;1578;47.658;9.922;2023-01-25T13:35:26;2.20;52.10
3136;DHT22;1578;47.658;9.922;2023-01-25T13:40:42;2.40;51.10
3136;DHT22;1578;47.658;9.922;2023-01-25T13:45:37;2.40;52.50
3136;DHT22;1578;47.658;9.922;2023-01-25T13:48:17;2.40;51.70
3136;DHT22;1578;47.658;9.922;2023-01-25T13:50:52;2.30;52.60
3136;DHT22;1578;47.658;9.922;2023-01-25T13:53:22;2.30;52.00
3136;DHT22;1578;47.658;9.922;2023-01-25T13:55:55;2.20;51.30
3136;DHT22;1578;47.658;9.922;2023-01-25T13:58:27;2.10;52.70
3136;DHT22;1578;47.658;9.922;2023-01-25T14:00:59;1.90;54.20
3136;DHT22;1578;47.658;9.922;2023-01-25T14:03:39;1.80;54.50
3136;DHT22;1578;47.658;9.922;2023-01-25T14:06:06;1.80;55.80
3136;DHT22;1578;47.658;9.922;2023-01-25T14:08:42;1.90;55.00
3136;DHT22;1578;47.658;9.922;2023-01-25T14:11:09;1.80;54.50
3136;DHT22;1578;47.658;9.922;2023-01-25T14:13:34;1.70;54.60
3136;DHT22;1578;47.658;9.922;2023-01-25T14:16:01;1.60;55.40
3136;DHT22;1578;47.658;9.922;2023-01-25T14:18:31;1.60;56.80
3136;DHT22;1578;47.658;9.922;2023-01-25T14:23:39;1.60;55.90
3136;DHT22;1578;47.658;9.922;2023-01-25T14:26:25;1.60;56.90
3136;DHT22;1578;47.658;9.922;2023-01-25T14:28:55;1.60;56.10
3136;DHT22;1578;47.658;9.922;2023-01-25T14:31:27;1.50;56.50
3136;DHT22;1578;47.658;9.922;2023-01-25T14:33:54;1.50;56.90
3136;DHT22;1578;47.658;9.922;2023-01-25T14:36:25;1.50;56.30
3136;DHT22;1578;47.658;9.922;2023-01-25T14:38:51;1.50;55.40
3136;DHT22;1578;47.658;9.922;2023-01-25T14:44:10;1.50;56.10
3136;DHT22;1578;47.658;9.922;2023-01-25T14:46:38;1.50;56.90
3136;DHT22;1578;47.658;9.922;2023-01-25T14:49:22;1.50;56.70
3136;DHT22;1578;47.658;9.922;2023-01-25T14:52:06;1.40;57.00
3136;DHT22;1578;47.658;9.922;2023-01-25T14:54:36;1.40;58.60
3136;DHT22;1578;47.658;9.922;2023-01-25T14:57:26;1.30;58.50
3136;DHT22;1578;47.658;9.922;2023-01-25T14:59:55;1.30;58.90
3136;DHT22;1578;47.658;9.922;2023-01-25T15:05:00;1.40;57.60
3136;DHT22;1578;47.658;9.922;2023-01-25T15:07:47;1.30;58.10
3136;DHT22;1578;47.658;9.922;2023-01-25T15:10:27;1.30;58.10
3136;DHT22;1578;47.658;9.922;2023-01-25T15:12:55;1.30;58.50
3136;DHT22;1578;47.658;9.922;2023-01-25T15:15:23;1.20;59.10
3136;DHT22;1578;47.658;9.922;2023-01-25T15:17:49;1.20;59.80
3136;DHT22;1578;47.658;9.922;2023-01-25T15:22:54;1.20;60.30
3136;DHT22;1578;47.658;9.922;2023-01-25T15:25:21;1.10;61.20
3136;DHT22;1578;47.658;9.922;2023-01-25T15:27:46;1.10;60.60
3136;DHT22;1578;47.658;9.922;2023-01-25T15:30:13;1.10;61.90
3136;DHT22;1578;47.658;9.922;2023-01-25T15:32:39;1.10;61.20
3136;DHT22;1578;47.658;9.922;2023-01-25T15:35:12;1.00;62.40
3136;DHT22;1578;47.658;9.922;2023-01-25T15:37:37;0.90;64.30
3136;DHT22;1578;47.658;9.922;2023-01-25T15:40:04;0.90;65.00
3136;DHT22;1578;47.658;9.922;2023-01-25T15:42:29;0.90;65.40
3136;DHT22;1578;47.658;9.922;2023-01-25T15:44:57;1.00;64.20
3136;DHT22;1578;47.658;9.922;2023-01-25T15:47:22;1.00;64.30
3136;DHT22;1578;47.658;9.922;2023-01-25T15:49:48;1.10;62.80
3136;DHT22;1578;47.658;9.922;2023-01-25T15:52:14;1.00;62.70
3136;DHT22;1578;47.658;9.922;2023-01-25T15:54:39;1.00;62.70
3136;DHT22;1578;47.658;9.922;2023-01-25T15:57:26;1.00;62.70
3136;DHT22;1578;47.658;9.922;2023-01-25T15:59:52;0.90;63.40
3136;DHT22;1578;47.658;9.922;2023-01-25T16:02:20;0.90;64.10
3136;DHT22;1578;47.658;9.922;2023-01-25T16:04:46;0.90;62.50
3136;DHT22;1578;47.658;9.922;2023-01-25T16:07:22;0.90;62.70
3136;DHT22;1578;47.658;9.922;2023-01-25T16:09:48;0.90;62.60
3136;DHT22;1578;47.658;9.922;2023-01-25T16:12:14;0.90;63.30
3136;DHT22;1578;47.658;9.922;2023-01-25T16:14:40;0.90;63.80
3136;DHT22;1578;47.658;9.922;2023-01-25T16:17:10;0.90;64.20
3136;DHT22;1578;47.658;9.922;2023-01-25T16:19:39;1.00;63.50
3136;DHT22;1578;47.658;9.922;2023-01-25T16:22:05;1.00;63.10
3136;DHT22;1578;47.658;9.922;2023-01-25T16:24:31;0.90;63.70
3136;DHT22;1578;47.658;9.922;2023-01-25T16:26:57;1.00;61.20
3136;DHT22;1578;47.658;9.922;2023-01-25T16:29:23;0.90;62.40
3136;DHT22;1578;47.658;9.922;2023-01-25T16:31:50;0.90;62.30
3136;DHT22;1578;47.658;9.922;2023-01-25T16:34:16;0.80;63.40
3136;DHT22;1578;47.658;9.922;2023-01-25T16:36:41;0.90;62.80
3136;DHT22;1578;47.658;9.922;2023-01-25T16:39:17;0.90;62.40
3136;DHT22;1578;47.658;9.922;2023-01-25T16:41:44;0.80;63.20
3136;DHT22;1578;47.658;9.922;2023-01-25T16:44:10;0.70;64.80
3136;DHT22;1578;47.658;9.922;2023-01-25T16:46:36;0.70;66.60
3136;DHT22;1578;47.658;9.922;2023-01-25T16:49:02;0.80;64.80
3136;DHT22;1578;47.658;9.922;2023-01-25T16:51:31;0.80;65.30
3136;DHT22;1578;47.658;9.922;2023-01-25T16:53:57;0.80;63.60
3136;DHT22;1578;47.658;9.922;2023-01-25T16:56:27;0.80;62.50
3136;DHT22;1578;47.658;9.922;2023-01-25T16:58:55;0.70;63.50
3136;DHT22;1578;47.658;9.922;2023-01-25T17:01:22;0.70;63.30
3136;DHT22;1578;47.658;9.922;2023-01-25T17:03:49;0.70;62.90
3136;DHT22;1578;47.658;9.922;2023-01-25T17:06:23;0.70;62.40
3136;DHT22;1578;47.658;9.922;2023-01-25T17:08:49;0.60;63.70
3136;DHT22;1578;47.658;9.922;2023-01-25T17:11:16;0.60;62.40
3136;DHT22;1578;47.658;9.922;2023-01-25T17:13:54;0.60;62.90
3136;DHT22;1578;47.658;9.922;2023-01-25T17:16:21;0.50;62.60
3136;DHT22;1578;47.658;9.922;2023-01-25T17:18:52;0.50;63.10
3136;DHT22;1578;47.658;9.922;2023-01-25T17:21:19;0.40;64.20
3136;DHT22;1578;47.658;9.922;2023-01-25T17:23:45;0.40;65.80
3136;DHT22;1578;47.658;9.922;2023-01-25T17:26:13;0.30;66.00
3136;DHT22;1578;47.658;9.922;2023-01-25T17:28:40;0.40;65.80
3136;DHT22;1578;47.658;9.922;2023-01-25T17:31:20;0.30;65.60
3136;DHT22;1578;47.658;9.922;2023-01-25T17:33:47;0.30;66.70
3136;DHT22;1578;47.658;9.922;2023-01-25T17:36:13;0.20;66.60
3136;DHT22;1578;47.658;9.922;2023-01-25T17:38:40;0.20;66.40
3136;DHT22;1578;47.658;9.922;2023-01-25T17:41:07;0.20;65.80
3136;DHT22;1578;47.658;9.922;2023-01-25T17:43:33;0.20;66.60
3136;DHT22;1578;47.658;9.922;2023-01-25T17:46:08;0.20;66.10
3136;DHT22;1578;47.658;9.922;2023-01-25T17:48:34;0.20;66.60
3136;DHT22;1578;47.658;9.922;2023-01-25T17:51:01;0.30;65.10
3136;DHT22;1578;47.658;9.922;2023-01-25T17:53:27;0.30;65.00
3136;DHT22;1578;47.658;9.922;2023-01-25T17:55:54;0.20;65.80
3136;DHT22;1578;47.658;9.922;2023-01-25T17:58:20;0.20;65.20